Terminal Aerodrome Forecast
Issued by NWS

Home | Current Version | Previous Version | Text Only | Print | Product List | Glossary On
Versions: 1 2 3 4 5 6 7 8 9 10 11 12 13 14 15 16 17 18 19 20 21 22 23 24 25
000
FTAK31 PANC 270532
TAFADU
TAF
PADU 270532Z 2706/2806 01009KT 6SM -RA BR FEW004 OVC008
      TEMPO 2706/2710 3SM -RA BR
     FM272200 01007KT P6SM -SHRA SCT008 OVC015=

USA.gov is the U.S. government's official web portal to all federal, state and local government web resources and services.